createdAt,value
2023-01-26T00:00:13.456Z,2.30
2023-01-26T00:01:33.480Z,2.20
2023-01-26T00:02:35.345Z,2.20
2023-01-26T00:03:37.081Z,2.30
2023-01-26T00:04:38.777Z,2.30
2023-01-26T00:05:40.697Z,2.30
2023-01-26T00:06:42.360Z,2.30
2023-01-26T00:07:45.569Z,2.30
2023-01-26T00:08:48.387Z,2.30
2023-01-26T00:09:50.056Z,2.30
2023-01-26T00:10:51.731Z,2.30
2023-01-26T00:11:53.396Z,2.30
2023-01-26T00:12:55.056Z,2.30
2023-01-26T00:13:57.653Z,2.30
2023-01-26T00:14:59.361Z,2.30
2023-01-26T00:16:01.732Z,2.30
2023-01-26T00:17:03.358Z,2.30
2023-01-26T00:18:05.002Z,2.30
2023-01-26T00:19:06.735Z,2.30
2023-01-26T00:20:09.026Z,2.30
2023-01-26T00:21:15.191Z,2.40
2023-01-26T00:22:16.882Z,2.40
2023-01-26T00:23:18.621Z,2.40
2023-01-26T00:24:20.371Z,2.30
2023-01-26T00:25:22.605Z,2.40
2023-01-26T00:26:25.247Z,2.30
2023-01-26T00:27:27.280Z,2.30
2023-01-26T00:28:29.351Z,2.30
2023-01-26T00:29:31.027Z,2.30
2023-01-26T00:30:32.765Z,2.30
2023-01-26T00:31:34.535Z,2.40
2023-01-26T00:32:36.469Z,2.30
2023-01-26T00:33:38.115Z,2.30
2023-01-26T00:34:39.788Z,2.40
2023-01-26T00:35:44.755Z,2.30
2023-01-26T00:36:46.413Z,2.30
2023-01-26T00:37:48.160Z,2.40
2023-01-26T00:38:49.809Z,2.30
2023-01-26T00:39:51.484Z,2.40
2023-01-26T00:40:53.402Z,2.30
2023-01-26T00:42:06.849Z,2.40
2023-01-26T00:43:09.481Z,2.30
2023-01-26T00:44:11.142Z,2.40
2023-01-26T00:45:12.825Z,2.30
2023-01-26T00:46:14.472Z,2.30
2023-01-26T00:47:17.079Z,2.30
2023-01-26T00:48:18.717Z,2.30
2023-01-26T00:49:20.337Z,2.30
2023-01-26T00:50:22.003Z,2.30
2023-01-26T00:51:23.835Z,2.30
2023-01-26T00:52:25.737Z,2.30
2023-01-26T00:53:27.403Z,2.30
2023-01-26T00:54:29.246Z,2.30
2023-01-26T00:55:33.836Z,2.30
2023-01-26T00:56:36.590Z,2.30
2023-01-26T00:57:39.187Z,2.30
2023-01-26T00:58:41.018Z,2.30
2023-01-26T00:59:43.008Z,2.30
2023-01-26T01:00:45.013Z,2.30
2023-01-26T01:01:47.316Z,2.30
2023-01-26T01:02:49.116Z,2.30
2023-01-26T01:03:52.138Z,2.30
2023-01-26T01:04:53.798Z,2.30
2023-01-26T01:05:55.445Z,2.30
2023-01-26T01:06:57.568Z,2.30
2023-01-26T01:07:59.211Z,2.30
2023-01-26T01:09:00.852Z,2.30
2023-01-26T01:10:02.981Z,2.30
2023-01-26T01:11:06.272Z,2.40
2023-01-26T01:12:08.237Z,2.30
2023-01-26T01:13:09.860Z,2.30
2023-01-26T01:14:12.849Z,2.40
2023-01-26T01:15:14.650Z,2.30
2023-01-26T01:16:17.033Z,2.40
2023-01-26T01:17:18.850Z,2.30
2023-01-26T01:18:20.497Z,2.40
2023-01-26T01:19:22.520Z,2.40
2023-01-26T01:20:24.175Z,2.40
2023-01-26T01:21:26.056Z,2.40
2023-01-26T01:22:27.707Z,2.40
2023-01-26T01:23:29.341Z,2.40
2023-01-26T01:24:31.175Z,2.40
2023-01-26T01:25:34.765Z,2.40
2023-01-26T01:26:37.800Z,2.40
2023-01-26T01:27:39.472Z,2.40
2023-01-26T01:28:42.304Z,2.40
2023-01-26T01:29:44.054Z,2.40
2023-01-26T01:30:45.715Z,2.40
2023-01-26T01:31:47.555Z,2.40
2023-01-26T01:32:51.616Z,2.40
2023-01-26T01:33:54.095Z,2.40
2023-01-26T01:34:55.772Z,2.40
2023-01-26T01:36:02.107Z,2.40
2023-01-26T01:37:03.823Z,2.40
2023-01-26T01:38:05.488Z,2.40
2023-01-26T01:39:07.618Z,2.40
2023-01-26T01:40:12.699Z,2.30
2023-01-26T01:41:15.871Z,2.40
2023-01-26T01:42:17.508Z,2.30
2023-01-26T01:43:19.784Z,2.40
2023-01-26T01:44:22.896Z,2.40
2023-01-26T01:45:28.470Z,2.40
2023-01-26T01:46:34.960Z,2.40
2023-01-26T01:47:36.923Z,2.40
2023-01-26T01:48:44.272Z,2.40
2023-01-26T01:49:48.117Z,2.40
2023-01-26T01:50:50.319Z,2.40
2023-01-26T01:52:21.692Z,2.40
2023-01-26T01:53:49.527Z,2.40
2023-01-26T01:54:53.445Z,2.30
2023-01-26T01:55:56.953Z,2.30
2023-01-26T01:57:00.720Z,2.30
2023-01-26T01:58:03.273Z,2.30
2023-01-26T01:59:07.148Z,2.30
2023-01-26T02:00:09.731Z,2.30
2023-01-26T02:01:12.680Z,2.30
2023-01-26T02:02:14.753Z,2.40
2023-01-26T02:03:19.571Z,2.30
2023-01-26T02:04:22.623Z,2.30
2023-01-26T02:05:32.518Z,2.40
2023-01-26T02:06:48.558Z,2.30
2023-01-26T02:07:50.704Z,2.30
2023-01-26T02:08:53.900Z,2.30
2023-01-26T02:10:14.405Z,2.30
2023-01-26T02:11:21.311Z,2.30
2023-01-26T02:12:26.454Z,2.30
2023-01-26T02:13:28.303Z,2.30
2023-01-26T02:14:30.166Z,2.30
2023-01-26T02:15:32.078Z,2.30
2023-01-26T02:16:33.962Z,2.30
2023-01-26T02:17:36.701Z,2.30
2023-01-26T02:18:38.457Z,2.30
2023-01-26T02:19:58.399Z,2.30
2023-01-26T02:21:01.483Z,2.30
2023-01-26T02:22:07.252Z,2.30
2023-01-26T02:23:12.091Z,2.30
2023-01-26T02:24:23.340Z,2.30
2023-01-26T02:25:34.253Z,2.30
2023-01-26T02:26:36.883Z,2.30
2023-01-26T02:27:38.816Z,2.30
2023-01-26T02:28:41.451Z,2.20
2023-01-26T02:29:43.202Z,2.30
2023-01-26T02:30:45.595Z,2.30
2023-01-26T02:32:57.903Z,2.30
2023-01-26T02:33:59.580Z,2.30
2023-01-26T02:35:01.247Z,2.30
2023-01-26T02:36:03.258Z,2.30
2023-01-26T02:37:04.932Z,2.30
2023-01-26T02:38:08.349Z,2.30
2023-01-26T02:39:12.787Z,2.30
2023-01-26T02:40:16.998Z,2.30
2023-01-26T02:41:38.715Z,2.30
2023-01-26T02:42:42.169Z,2.20
2023-01-26T02:43:43.882Z,2.20
2023-01-26T02:44:45.684Z,2.30
2023-01-26T02:45:47.363Z,2.30
2023-01-26T02:46:49.378Z,2.30
2023-01-26T02:47:51.062Z,2.30
2023-01-26T02:49:11.418Z,2.30
2023-01-26T02:50:13.904Z,2.30
2023-01-26T02:51:15.790Z,2.30
2023-01-26T02:52:18.799Z,2.30
2023-01-26T02:53:20.431Z,2.30
2023-01-26T02:54:41.166Z,2.30
2023-01-26T02:55:43.201Z,2.30
2023-01-26T02:56:44.978Z,2.20
2023-01-26T02:57:47.155Z,2.20
2023-01-26T02:58:48.780Z,2.20
2023-01-26T02:59:50.614Z,2.20
2023-01-26T03:00:52.364Z,2.20
2023-01-26T03:01:55.664Z,2.20
2023-01-26T03:02:59.239Z,2.20
2023-01-26T03:04:00.921Z,2.20
2023-01-26T03:05:04.684Z,2.20
2023-01-26T03:06:06.544Z,2.20
2023-01-26T03:07:08.165Z,2.20
2023-01-26T03:08:09.846Z,2.20
2023-01-26T03:09:11.629Z,2.20
2023-01-26T03:10:13.764Z,2.10
2023-01-26T03:11:15.453Z,2.20
2023-01-26T03:12:17.443Z,2.20
2023-01-26T03:13:19.113Z,2.20
2023-01-26T03:14:20.820Z,2.10
2023-01-26T03:15:40.890Z,2.20
2023-01-26T03:16:42.676Z,2.10
2023-01-26T03:17:44.617Z,2.10
2023-01-26T03:19:04.651Z,2.10
2023-01-26T03:20:25.654Z,2.10
2023-01-26T03:21:46.099Z,2.10
2023-01-26T03:23:06.524Z,2.10
2023-01-26T03:24:32.872Z,2.10
2023-01-26T03:25:53.500Z,2.10
2023-01-26T03:27:13.587Z,2.00
2023-01-26T03:28:15.249Z,2.00
2023-01-26T03:29:16.940Z,2.00
2023-01-26T03:30:19.391Z,2.00
2023-01-26T03:31:21.254Z,2.00
2023-01-26T03:32:23.660Z,2.00
2023-01-26T03:33:25.350Z,2.10
2023-01-26T03:34:27.512Z,2.10
2023-01-26T03:35:29.178Z,2.10
2023-01-26T03:36:30.848Z,2.10
2023-01-26T03:37:36.996Z,2.10
2023-01-26T03:38:38.655Z,2.10
2023-01-26T03:39:59.109Z,2.10
2023-01-26T03:41:19.722Z,2.00
2023-01-26T03:42:40.147Z,2.10
2023-01-26T03:44:00.417Z,2.00
2023-01-26T03:45:20.849Z,2.00
2023-01-26T03:46:41.162Z,2.00
2023-01-26T03:48:01.264Z,2.00
2023-01-26T03:49:21.714Z,2.00
2023-01-26T03:50:41.914Z,2.00
2023-01-26T03:52:02.303Z,1.90
2023-01-26T03:53:30.535Z,1.90
2023-01-26T03:54:50.771Z,1.90
2023-01-26T03:56:11.040Z,1.90
2023-01-26T03:57:12.656Z,1.90
2023-01-26T03:58:14.279Z,1.90
2023-01-26T03:59:16.691Z,1.90
2023-01-26T04:00:18.465Z,1.90
2023-01-26T04:01:27.554Z,1.90
2023-01-26T04:02:47.957Z,1.90
2023-01-26T04:04:08.895Z,1.90
2023-01-26T04:05:29.336Z,1.90
2023-01-26T04:06:49.816Z,1.90
2023-01-26T04:08:10.377Z,1.90
2023-01-26T04:09:12.104Z,1.90
2023-01-26T04:10:14.015Z,1.90
2023-01-26T04:11:17.237Z,1.90
2023-01-26T04:12:18.863Z,2.00
2023-01-26T04:13:39.895Z,2.00
2023-01-26T04:15:00.229Z,1.90
2023-01-26T04:16:20.960Z,1.90
2023-01-26T04:17:40.866Z,1.90
2023-01-26T04:19:01.164Z,1.90
2023-01-26T04:20:21.464Z,1.90
2023-01-26T04:21:49.444Z,1.90
2023-01-26T04:22:51.201Z,1.90
2023-01-26T04:23:56.476Z,1.80
2023-01-26T04:24:58.229Z,1.80
2023-01-26T04:25:59.906Z,1.90
2023-01-26T04:27:01.542Z,1.90
2023-01-26T04:28:03.393Z,1.90
2023-01-26T04:29:07.095Z,1.90
2023-01-26T04:30:10.737Z,1.90
2023-01-26T04:31:12.755Z,1.90
2023-01-26T04:32:14.645Z,1.90
2023-01-26T04:33:16.303Z,1.90
2023-01-26T04:34:18.111Z,1.90
2023-01-26T04:35:19.722Z,1.90
2023-01-26T04:36:21.569Z,1.90
2023-01-26T04:37:23.406Z,1.90
2023-01-26T04:38:25.107Z,1.90
2023-01-26T04:39:27.156Z,1.90
2023-01-26T04:40:28.766Z,1.90
2023-01-26T04:41:30.957Z,1.90
2023-01-26T04:42:32.606Z,1.90
2023-01-26T04:43:34.293Z,1.90
2023-01-26T04:44:36.333Z,1.90
2023-01-26T04:45:38.073Z,1.90
2023-01-26T04:46:39.747Z,1.90
2023-01-26T04:47:41.387Z,1.90
2023-01-26T04:48:43.234Z,1.90
2023-01-26T04:49:45.054Z,1.90
2023-01-26T04:50:53.242Z,1.90
2023-01-26T04:51:55.014Z,1.90
2023-01-26T04:52:56.636Z,1.90
2023-01-26T04:53:58.293Z,1.90
2023-01-26T04:54:59.936Z,1.90
2023-01-26T04:56:01.849Z,1.90
2023-01-26T04:57:03.716Z,1.90
2023-01-26T04:58:05.355Z,1.90
2023-01-26T04:59:07.865Z,1.90
2023-01-26T05:00:12.170Z,1.90
2023-01-26T05:01:14.111Z,1.90
2023-01-26T05:02:15.853Z,1.90
2023-01-26T05:03:17.563Z,1.90
2023-01-26T05:04:19.425Z,1.90
2023-01-26T05:05:21.052Z,1.90
2023-01-26T05:06:22.663Z,1.90
2023-01-26T05:07:24.286Z,1.90
2023-01-26T05:08:25.953Z,1.90
2023-01-26T05:09:27.677Z,1.90
2023-01-26T05:10:29.436Z,1.90
2023-01-26T05:11:31.470Z,1.90
2023-01-26T05:12:33.203Z,1.90
2023-01-26T05:13:36.001Z,1.90
2023-01-26T05:14:38.031Z,1.90
2023-01-26T05:15:40.129Z,1.90
2023-01-26T05:16:41.884Z,1.90
2023-01-26T05:17:43.608Z,1.90
2023-01-26T05:18:45.479Z,1.90
2023-01-26T05:19:47.170Z,1.90
2023-01-26T05:20:48.920Z,1.90
2023-01-26T05:21:50.555Z,1.90
2023-01-26T05:22:52.247Z,1.90
2023-01-26T05:23:54.584Z,1.90
2023-01-26T05:24:56.263Z,1.80
2023-01-26T05:25:57.904Z,1.80
2023-01-26T05:27:18.268Z,1.80
2023-01-26T05:28:19.923Z,1.80
2023-01-26T05:29:21.696Z,1.80
2023-01-26T05:30:23.346Z,1.80
2023-01-26T05:31:25.063Z,1.80
2023-01-26T05:32:28.071Z,1.80
2023-01-26T05:33:30.411Z,1.80
2023-01-26T05:34:32.033Z,1.80
2023-01-26T05:35:33.937Z,1.80
2023-01-26T05:36:35.643Z,1.80
2023-01-26T05:37:37.520Z,1.80
2023-01-26T05:38:39.142Z,1.80
2023-01-26T05:39:40.823Z,1.80
2023-01-26T05:40:42.481Z,1.80
2023-01-26T05:41:44.113Z,1.80
2023-01-26T05:42:46.412Z,1.80
2023-01-26T05:43:48.083Z,1.80
2023-01-26T05:44:49.791Z,1.80
2023-01-26T05:45:51.824Z,1.80
2023-01-26T05:46:53.478Z,1.80
2023-01-26T05:47:55.231Z,1.80
2023-01-26T05:48:57.027Z,1.80
2023-01-26T05:49:58.680Z,1.80
2023-01-26T05:51:02.378Z,1.80
2023-01-26T05:52:08.409Z,1.80
2023-01-26T05:53:10.054Z,1.80
2023-01-26T05:54:11.673Z,1.80
2023-01-26T05:55:13.827Z,1.80
2023-01-26T05:56:15.543Z,1.90
2023-01-26T05:57:17.523Z,1.90
2023-01-26T05:58:19.475Z,1.90
2023-01-26T05:59:21.105Z,1.80
2023-01-26T06:00:23.043Z,1.80
2023-01-26T06:01:24.890Z,1.80
2023-01-26T06:02:27.489Z,1.80
2023-01-26T06:03:29.475Z,1.80
2023-01-26T06:04:31.240Z,1.80
2023-01-26T06:05:32.950Z,1.80
2023-01-26T06:06:34.593Z,1.80
2023-01-26T06:07:36.476Z,1.80
2023-01-26T06:08:38.092Z,1.80
2023-01-26T06:09:40.506Z,1.80
2023-01-26T06:10:42.143Z,1.80
2023-01-26T06:11:43.809Z,1.90
2023-01-26T06:12:45.643Z,1.80
2023-01-26T06:13:48.728Z,1.90
2023-01-26T06:14:50.442Z,1.90
2023-01-26T06:15:53.176Z,1.90
2023-01-26T06:16:56.728Z,1.90
2023-01-26T06:18:00.488Z,1.80
2023-01-26T06:19:02.114Z,1.90
2023-01-26T06:20:03.914Z,1.90
2023-01-26T06:21:05.578Z,1.90
2023-01-26T06:22:07.937Z,1.90
2023-01-26T06:23:11.986Z,1.90
2023-01-26T06:24:13.711Z,1.90
2023-01-26T06:25:15.578Z,1.90
2023-01-26T06:26:17.238Z,1.90
2023-01-26T06:27:19.013Z,1.90
2023-01-26T06:28:20.787Z,1.90
2023-01-26T06:29:22.412Z,1.90
2023-01-26T06:30:24.219Z,1.90
2023-01-26T06:31:29.485Z,2.00
2023-01-26T06:32:31.357Z,1.90
2023-01-26T06:33:36.301Z,1.90
2023-01-26T06:34:38.058Z,1.90
2023-01-26T06:35:39.683Z,1.80
2023-01-26T06:36:41.671Z,1.90
2023-01-26T06:37:43.395Z,1.90
2023-01-26T06:38:49.083Z,1.90
2023-01-26T06:39:50.718Z,1.90
2023-01-26T06:40:52.423Z,1.90
2023-01-26T06:41:54.088Z,1.90
2023-01-26T06:42:55.746Z,1.90
2023-01-26T06:43:57.403Z,1.90
2023-01-26T06:44:59.091Z,1.90
2023-01-26T06:46:01.380Z,1.90
2023-01-26T06:47:03.104Z,1.90
2023-01-26T06:48:04.808Z,1.90
2023-01-26T06:49:06.537Z,1.90
2023-01-26T06:50:08.618Z,1.90
2023-01-26T06:51:16.440Z,1.90
2023-01-26T06:52:47.113Z,1.90
2023-01-26T06:53:53.008Z,1.90
2023-01-26T06:54:55.635Z,1.90
2023-01-26T06:55:57.382Z,1.90
2023-01-26T06:56:59.580Z,1.90
2023-01-26T06:58:03.176Z,1.90
2023-01-26T06:59:05.687Z,1.90
2023-01-26T07:00:07.836Z,1.80
2023-01-26T07:01:11.221Z,1.90
2023-01-26T07:02:16.734Z,1.80
2023-01-26T07:03:18.916Z,1.90
2023-01-26T07:04:22.556Z,1.90
2023-01-26T07:05:24.381Z,1.90
2023-01-26T07:06:26.957Z,1.90
2023-01-26T07:07:37.294Z,1.90
2023-01-26T07:08:41.883Z,1.90
2023-01-26T07:09:44.048Z,1.90
2023-01-26T07:10:47.075Z,1.90
2023-01-26T07:11:49.108Z,1.90
2023-01-26T07:12:50.917Z,1.90
2023-01-26T07:13:52.558Z,1.90
2023-01-26T07:14:54.307Z,1.90
2023-01-26T07:16:03.808Z,1.90
2023-01-26T07:17:05.517Z,1.90
2023-01-26T07:18:07.337Z,1.90
2023-01-26T07:19:09.074Z,1.90
2023-01-26T07:20:11.518Z,1.90
2023-01-26T07:21:14.955Z,1.90
2023-01-26T07:22:16.918Z,1.90
2023-01-26T07:23:19.135Z,1.90
2023-01-26T07:24:22.125Z,1.90
2023-01-26T07:25:23.944Z,1.90
2023-01-26T07:26:25.907Z,1.90
2023-01-26T07:27:27.752Z,1.90
2023-01-26T07:28:30.913Z,2.00
2023-01-26T07:29:32.567Z,2.00
2023-01-26T07:30:34.388Z,2.00
2023-01-26T07:31:36.231Z,2.00
2023-01-26T07:32:38.057Z,2.00
2023-01-26T07:33:40.074Z,2.00
2023-01-26T07:34:41.826Z,2.00
2023-01-26T07:35:50.416Z,2.00
2023-01-26T07:36:52.340Z,2.00
2023-01-26T07:37:58.675Z,2.00
2023-01-26T07:39:00.446Z,2.00
2023-01-26T07:40:02.421Z,2.00
2023-01-26T07:41:09.969Z,2.00
2023-01-26T07:42:11.873Z,2.00
2023-01-26T07:43:14.055Z,2.00
2023-01-26T07:44:15.944Z,1.90
2023-01-26T07:45:18.082Z,1.90
2023-01-26T07:46:20.143Z,1.90
2023-01-26T07:47:21.988Z,1.90
2023-01-26T07:48:24.332Z,1.90
2023-01-26T07:49:26.118Z,2.00
2023-01-26T07:50:27.995Z,2.00
2023-01-26T07:51:29.772Z,1.90
2023-01-26T07:52:31.656Z,1.90
2023-01-26T07:53:37.829Z,1.90
2023-01-26T07:54:40.289Z,1.90
2023-01-26T07:55:44.886Z,1.90
2023-01-26T07:56:46.721Z,2.00
2023-01-26T07:57:48.933Z,1.90
2023-01-26T07:58:54.116Z,1.90
2023-01-26T07:59:56.317Z,2.00
2023-01-26T08:01:04.542Z,1.90
2023-01-26T08:02:06.542Z,1.90
2023-01-26T08:03:08.380Z,1.90
2023-01-26T08:04:11.862Z,1.90
2023-01-26T08:05:13.732Z,1.90
2023-01-26T08:06:17.128Z,2.00
2023-01-26T08:07:19.084Z,1.90
2023-01-26T08:08:21.147Z,1.90
2023-01-26T08:09:22.995Z,1.90
2023-01-26T08:10:24.938Z,1.90
2023-01-26T08:11:27.387Z,1.90
2023-01-26T08:12:29.555Z,1.90
2023-01-26T08:13:35.669Z,1.90
2023-01-26T08:14:46.491Z,1.90
2023-01-26T08:15:49.063Z,1.90
2023-01-26T08:16:50.992Z,1.90
2023-01-26T08:17:55.623Z,1.90
2023-01-26T08:18:57.504Z,1.90
2023-01-26T08:19:59.763Z,1.90
2023-01-26T08:21:01.497Z,1.90
2023-01-26T08:22:03.161Z,1.90
2023-01-26T08:23:05.024Z,1.90
2023-01-26T08:24:07.005Z,1.90
2023-01-26T08:25:08.786Z,1.90
2023-01-26T08:26:11.965Z,1.90
2023-01-26T08:27:14.840Z,1.90
2023-01-26T08:28:19.926Z,1.90
2023-01-26T08:29:23.024Z,1.90
2023-01-26T08:30:24.840Z,1.90
2023-01-26T08:31:28.554Z,1.90
2023-01-26T08:32:31.146Z,1.90
2023-01-26T08:33:34.088Z,2.00
2023-01-26T08:34:36.097Z,1.90
2023-01-26T08:35:38.396Z,2.00
2023-01-26T08:36:40.211Z,2.00
2023-01-26T08:37:42.264Z,2.00
2023-01-26T08:38:44.121Z,2.00
2023-01-26T08:39:45.849Z,2.00
2023-01-26T08:40:51.297Z,2.10
2023-01-26T08:41:53.172Z,2.00
2023-01-26T08:42:55.107Z,2.00
2023-01-26T08:44:00.130Z,2.00
2023-01-26T08:45:02.318Z,2.00
2023-01-26T08:46:04.809Z,2.00
2023-01-26T08:47:06.635Z,2.00
2023-01-26T08:48:08.435Z,2.00
2023-01-26T08:49:10.407Z,2.00
2023-01-26T08:50:12.471Z,2.00
2023-01-26T08:51:14.463Z,2.10
2023-01-26T08:52:16.905Z,2.00
2023-01-26T08:53:18.533Z,2.00
2023-01-26T08:54:20.549Z,2.00
2023-01-26T08:55:24.230Z,2.00
2023-01-26T08:56:25.883Z,2.00
2023-01-26T08:57:27.668Z,2.00
2023-01-26T08:58:29.682Z,2.00
2023-01-26T08:59:31.304Z,2.00
2023-01-26T09:00:33.673Z,2.00
2023-01-26T09:01:35.476Z,2.00
2023-01-26T09:02:37.450Z,2.00
2023-01-26T09:03:39.321Z,2.00
2023-01-26T09:04:40.962Z,2.10
2023-01-26T09:05:42.857Z,2.10
2023-01-26T09:06:44.849Z,2.10
2023-01-26T09:07:46.526Z,2.10
2023-01-26T09:08:48.410Z,2.20
2023-01-26T09:09:51.096Z,2.10
2023-01-26T09:10:52.822Z,2.10
2023-01-26T09:11:57.787Z,2.10
2023-01-26T09:13:00.350Z,2.10
2023-01-26T09:14:01.999Z,2.10
2023-01-26T09:15:04.013Z,2.20
2023-01-26T09:16:06.806Z,2.10
2023-01-26T09:17:08.585Z,2.10
2023-01-26T09:18:11.323Z,2.20
2023-01-26T09:19:13.142Z,2.20
2023-01-26T09:20:15.017Z,2.20
2023-01-26T09:21:16.759Z,2.20
2023-01-26T09:22:18.410Z,2.20
2023-01-26T09:23:20.662Z,2.20
2023-01-26T09:24:22.373Z,2.20
2023-01-26T09:25:24.054Z,2.20
2023-01-26T09:26:25.855Z,2.20
2023-01-26T09:27:27.538Z,2.20
2023-01-26T09:28:29.420Z,2.20
2023-01-26T09:29:31.251Z,2.20
2023-01-26T09:30:33.547Z,2.20
2023-01-26T09:31:35.546Z,2.20
2023-01-26T09:32:37.433Z,2.20
2023-01-26T09:33:43.508Z,2.20
2023-01-26T09:34:46.567Z,2.30
2023-01-26T09:35:49.176Z,2.30
2023-01-26T09:36:51.519Z,2.30
2023-01-26T09:37:53.601Z,2.30
2023-01-26T09:38:55.489Z,2.50
2023-01-26T09:39:57.349Z,2.30
2023-01-26T09:41:01.895Z,2.30
2023-01-26T09:42:03.695Z,2.30
2023-01-26T09:43:11.510Z,2.30
2023-01-26T09:44:18.992Z,2.30
2023-01-26T09:45:24.634Z,2.30
2023-01-26T09:46:32.501Z,2.30
2023-01-26T09:47:58.139Z,2.30
2023-01-26T09:49:08.135Z,2.30
2023-01-26T09:50:17.014Z,2.20
2023-01-26T09:51:36.388Z,2.30
2023-01-26T09:52:44.082Z,2.30
2023-01-26T09:53:50.877Z,2.30
2023-01-26T09:56:18.663Z,2.30
2023-01-26T09:57:29.241Z,2.30
2023-01-26T09:58:36.655Z,2.30
2023-01-26T09:59:42.670Z,2.30
2023-01-26T10:00:49.133Z,2.30
2023-01-26T10:01:56.937Z,2.30
2023-01-26T10:03:06.370Z,2.30
2023-01-26T10:04:16.341Z,2.20
2023-01-26T10:05:41.249Z,2.30
2023-01-26T10:06:44.269Z,2.20
2023-01-26T10:07:47.893Z,2.20
2023-01-26T10:08:50.171Z,2.40
2023-01-26T10:09:52.581Z,2.20
2023-01-26T10:10:59.330Z,2.30
2023-01-26T10:12:04.317Z,2.20
2023-01-26T10:13:06.358Z,2.20
2023-01-26T10:14:31.184Z,2.20
2023-01-26T10:15:39.299Z,2.20
2023-01-26T10:16:45.885Z,2.20
2023-01-26T10:17:48.016Z,2.20
2023-01-26T10:19:02.424Z,2.20
2023-01-26T10:20:23.925Z,2.20
2023-01-26T10:21:27.138Z,2.20
2023-01-26T10:22:35.857Z,2.20
2023-01-26T10:24:59.911Z,2.20
2023-01-26T10:26:08.092Z,2.20
2023-01-26T10:27:11.645Z,2.10
2023-01-26T10:28:17.942Z,2.10
2023-01-26T10:29:20.691Z,2.20
2023-01-26T10:30:22.912Z,2.10
2023-01-26T10:31:27.579Z,2.10
2023-01-26T10:32:29.714Z,2.10
2023-01-26T10:33:33.520Z,2.10
2023-01-26T10:34:37.613Z,2.10
2023-01-26T10:35:39.394Z,2.10
2023-01-26T10:36:42.960Z,2.20
2023-01-26T10:37:45.351Z,2.10
2023-01-26T10:38:48.115Z,2.20
2023-01-26T10:39:58.348Z,2.10
2023-01-26T10:41:17.293Z,2.10
2023-01-26T10:42:19.874Z,2.10
2023-01-26T10:43:21.731Z,2.10
2023-01-26T10:44:31.485Z,2.10
2023-01-26T10:45:33.953Z,2.10
2023-01-26T10:46:38.378Z,2.10
2023-01-26T10:47:40.536Z,2.10
2023-01-26T10:48:51.220Z,2.10
2023-01-26T10:49:53.539Z,2.10
2023-01-26T10:50:55.681Z,2.10
2023-01-26T10:52:09.431Z,2.00
2023-01-26T10:53:17.810Z,2.10
2023-01-26T10:54:23.772Z,2.10
2023-01-26T10:55:25.802Z,2.00
2023-01-26T10:56:28.087Z,2.00
2023-01-26T10:57:32.699Z,2.10
2023-01-26T10:58:43.100Z,2.00
2023-01-26T10:59:51.006Z,2.10
2023-01-26T11:00:56.253Z,2.00
2023-01-26T11:01:58.256Z,2.00
2023-01-26T11:03:06.365Z,2.00
2023-01-26T11:04:12.466Z,2.00
2023-01-26T11:05:20.058Z,2.00
2023-01-26T11:06:27.343Z,2.00
2023-01-26T11:07:33.234Z,2.00
2023-01-26T11:08:38.539Z,2.00
2023-01-26T11:09:40.562Z,2.00
2023-01-26T11:10:52.631Z,2.00
2023-01-26T11:11:55.917Z,2.00
2023-01-26T11:13:07.528Z,2.00
2023-01-26T11:14:15.099Z,2.00
2023-01-26T11:15:18.819Z,2.00
2023-01-26T11:16:22.864Z,2.00
2023-01-26T11:17:26.316Z,2.00
2023-01-26T11:18:31.029Z,2.00
2023-01-26T11:19:59.412Z,2.00
2023-01-26T11:21:06.278Z,2.00
2023-01-26T11:22:18.517Z,2.00
2023-01-26T11:23:23.581Z,2.00
2023-01-26T11:24:45.718Z,2.00
2023-01-26T11:26:05.821Z,2.00
2023-01-26T11:27:10.364Z,2.00
2023-01-26T11:28:39.177Z,2.00
2023-01-26T11:29:40.941Z,2.00
2023-01-26T11:30:45.892Z,2.00
2023-01-26T11:32:04.666Z,2.00
2023-01-26T11:33:21.364Z,2.00
2023-01-26T11:34:34.191Z,2.10
2023-01-26T11:35:44.720Z,2.10
2023-01-26T11:36:58.732Z,2.10
2023-01-26T11:38:26.352Z,2.10
2023-01-26T11:39:33.988Z,2.00
2023-01-26T11:40:54.695Z,2.00
2023-01-26T11:41:56.495Z,2.00
2023-01-26T11:43:05.567Z,2.10
2023-01-26T11:44:15.439Z,2.00
2023-01-26T11:45:36.014Z,2.10
2023-01-26T11:46:40.454Z,2.00
2023-01-26T11:47:56.499Z,2.00
2023-01-26T11:49:04.314Z,2.00
2023-01-26T11:50:16.595Z,2.00
2023-01-26T11:51:24.129Z,2.00
2023-01-26T11:52:32.283Z,2.00
2023-01-26T11:53:43.025Z,1.90
2023-01-26T11:54:59.910Z,2.00
2023-01-26T11:56:10.286Z,2.00
2023-01-26T11:57:29.038Z,2.00
2023-01-26T11:58:40.150Z,2.00
2023-01-26T12:00:05.763Z,1.90
2023-01-26T12:01:12.105Z,1.90
2023-01-26T12:02:19.917Z,1.90
2023-01-26T12:03:31.282Z,1.90
2023-01-26T12:04:36.034Z,1.90
2023-01-26T12:05:42.650Z,1.90
2023-01-26T12:06:45.842Z,2.00
2023-01-26T12:08:02.612Z,2.00
2023-01-26T12:09:04.399Z,2.00
2023-01-26T12:10:07.523Z,2.00
2023-01-26T12:11:24.152Z,2.00
2023-01-26T12:12:36.395Z,2.00
2023-01-26T12:13:42.419Z,2.00
2023-01-26T12:14:51.142Z,2.00
2023-01-26T12:15:59.065Z,1.90
2023-01-26T12:17:21.129Z,1.90
2023-01-26T12:18:50.834Z,1.90
2023-01-26T12:20:10.116Z,1.90
2023-01-26T12:21:12.028Z,1.90
2023-01-26T12:22:22.403Z,1.90
2023-01-26T12:23:25.714Z,1.90
2023-01-26T12:25:01.155Z,1.90
2023-01-26T12:26:00.203Z,1.90
2023-01-26T12:27:04.848Z,1.90
2023-01-26T12:28:22.319Z,1.90
2023-01-26T12:29:42.912Z,1.90
2023-01-26T12:30:50.698Z,1.90
2023-01-26T12:31:58.779Z,1.90
2023-01-26T12:33:01.277Z,1.90
2023-01-26T12:34:04.564Z,1.90
2023-01-26T12:35:11.002Z,2.00
2023-01-26T12:36:12.913Z,1.90
2023-01-26T12:37:33.071Z,1.90
2023-01-26T12:38:53.647Z,1.90
2023-01-26T12:40:13.788Z,1.90
2023-01-26T12:41:34.914Z,1.90
2023-01-26T12:42:46.851Z,1.90
2023-01-26T12:43:54.226Z,1.90
2023-01-26T12:44:56.357Z,1.80
2023-01-26T12:46:00.679Z,1.80
2023-01-26T12:47:07.752Z,1.80
2023-01-26T12:48:20.819Z,1.90
2023-01-26T12:49:26.163Z,1.80
2023-01-26T12:50:31.304Z,1.80
2023-01-26T12:51:35.728Z,1.90
2023-01-26T12:52:47.237Z,1.80
2023-01-26T12:53:56.800Z,1.80
2023-01-26T12:55:20.238Z,1.80
2023-01-26T12:56:25.612Z,1.80
2023-01-26T12:57:31.570Z,1.80
2023-01-26T12:58:35.416Z,1.80
2023-01-26T12:59:47.001Z,1.80
2023-01-26T13:01:04.351Z,1.90
2023-01-26T13:02:11.449Z,1.80
2023-01-26T13:03:22.873Z,1.90
2023-01-26T13:04:24.937Z,1.90
2023-01-26T13:05:28.817Z,1.90
2023-01-26T13:06:31.098Z,1.90
2023-01-26T13:07:34.437Z,1.90
2023-01-26T13:08:36.523Z,1.90
2023-01-26T13:09:38.907Z,2.00
2023-01-26T13:10:45.957Z,1.90
2023-01-26T13:11:55.005Z,1.90
2023-01-26T13:12:57.093Z,1.90
2023-01-26T13:13:58.916Z,1.90
2023-01-26T13:15:01.178Z,2.00
2023-01-26T13:16:18.143Z,1.90
2023-01-26T13:17:20.000Z,1.90
2023-01-26T13:18:41.780Z,1.90
2023-01-26T13:19:43.588Z,1.90
2023-01-26T13:20:48.864Z,1.90
2023-01-26T13:21:50.707Z,1.90
2023-01-26T13:22:53.280Z,1.90
2023-01-26T13:23:55.116Z,1.90
2023-01-26T13:24:58.834Z,1.90
2023-01-26T13:26:26.873Z,1.90
2023-01-26T13:27:30.628Z,1.80
2023-01-26T13:28:32.402Z,1.80
2023-01-26T13:29:34.879Z,1.80
2023-01-26T13:30:44.322Z,1.80
2023-01-26T13:31:46.146Z,1.80
2023-01-26T13:32:48.089Z,1.80
2023-01-26T13:33:49.993Z,1.80
2023-01-26T13:34:58.150Z,1.80
2023-01-26T13:36:03.008Z,1.80
2023-01-26T13:37:16.462Z,1.80
2023-01-26T13:38:21.413Z,1.80
2023-01-26T13:39:31.598Z,1.90
2023-01-26T13:40:38.298Z,1.80
2023-01-26T13:41:47.525Z,1.80
2023-01-26T13:42:58.430Z,1.80
2023-01-26T13:44:14.074Z,1.80
2023-01-26T13:45:23.836Z,1.80
2023-01-26T13:46:34.860Z,1.80
2023-01-26T13:47:39.233Z,1.80
2023-01-26T13:48:44.627Z,1.80
2023-01-26T13:49:46.570Z,1.80
2023-01-26T13:50:50.383Z,1.80
2023-01-26T13:51:52.256Z,1.80
2023-01-26T13:52:54.152Z,1.80
2023-01-26T13:53:58.813Z,1.80
2023-01-26T13:55:03.361Z,1.80
2023-01-26T13:56:06.433Z,1.80
2023-01-26T13:57:12.509Z,1.80
2023-01-26T13:58:16.101Z,1.80
2023-01-26T13:59:19.888Z,1.80
2023-01-26T14:00:22.629Z,1.90
2023-01-26T14:01:24.470Z,1.90
2023-01-26T14:02:26.560Z,1.80
2023-01-26T14:03:28.988Z,1.80
2023-01-26T14:04:31.591Z,1.90
2023-01-26T14:05:35.546Z,1.80
2023-01-26T14:06:37.796Z,1.80
2023-01-26T14:07:43.488Z,1.80
2023-01-26T14:08:50.856Z,1.80
2023-01-26T14:09:53.410Z,1.80
2023-01-26T14:10:55.782Z,1.80
2023-01-26T14:12:06.926Z,1.80
2023-01-26T14:13:19.728Z,1.90
2023-01-26T14:14:24.904Z,1.80
2023-01-26T14:15:28.733Z,1.80
2023-01-26T14:16:30.416Z,1.80
2023-01-26T14:17:33.862Z,1.80
2023-01-26T14:18:35.750Z,1.80
2023-01-26T14:19:39.627Z,1.80
2023-01-26T14:20:41.571Z,1.80
2023-01-26T14:21:47.994Z,1.80
2023-01-26T14:23:07.938Z,1.80
2023-01-26T14:24:10.721Z,1.80
2023-01-26T14:25:12.839Z,1.70
2023-01-26T14:26:14.976Z,1.70
2023-01-26T14:27:30.358Z,1.70
2023-01-26T14:28:34.850Z,1.80
2023-01-26T14:29:38.633Z,1.70
2023-01-26T14:30:40.956Z,1.70
2023-01-26T14:31:42.915Z,1.80
2023-01-26T14:32:44.748Z,1.80